createdAt,value
2022-08-14T00:00:19.538Z,25.30
2022-08-14T00:03:07.157Z,25.40
2022-08-14T00:05:58.407Z,25.40
2022-08-14T00:08:47.842Z,25.20
2022-08-14T00:11:37.754Z,25.40
2022-08-14T00:14:31.789Z,25.40
2022-08-14T00:17:19.863Z,25.60
2022-08-14T00:20:11.085Z,25.40
2022-08-14T00:23:12.595Z,25.50
2022-08-14T00:26:05.864Z,25.60
2022-08-14T00:28:54.673Z,25.50
2022-08-14T00:31:44.324Z,25.40
2022-08-14T00:34:36.121Z,25.40
2022-08-14T00:37:35.839Z,25.30
2022-08-14T00:40:33.105Z,25.10
2022-08-14T00:43:22.147Z,25.10
2022-08-14T00:46:30.221Z,25.10
2022-08-14T00:49:21.175Z,24.80
2022-08-14T00:52:09.938Z,24.70
2022-08-14T00:55:02.824Z,24.60
2022-08-14T00:58:10.473Z,24.50
2022-08-14T01:01:09.511Z,24.40
2022-08-14T01:04:05.699Z,24.30
2022-08-14T01:06:55.290Z,24.10
2022-08-14T01:09:43.632Z,24.20
2022-08-14T01:12:33.879Z,24.00
2022-08-14T01:15:57.473Z,24.00
2022-08-14T01:19:02.054Z,24.00
2022-08-14T01:21:53.050Z,23.90
2022-08-14T01:24:43.501Z,23.90
2022-08-14T01:27:31.883Z,23.90
2022-08-14T01:30:41.877Z,23.90
2022-08-14T01:33:30.584Z,24.00
2022-08-14T01:36:39.793Z,23.90
2022-08-14T01:39:27.989Z,23.90
2022-08-14T01:42:31.447Z,23.80
2022-08-14T01:45:25.303Z,23.80
2022-08-14T01:48:14.713Z,23.80
2022-08-14T01:51:02.992Z,23.70
2022-08-14T01:54:00.962Z,23.70
2022-08-14T01:56:56.602Z,23.60
2022-08-14T01:59:44.967Z,23.70
2022-08-14T02:02:36.902Z,23.70
2022-08-14T02:05:31.037Z,23.70
2022-08-14T02:08:35.062Z,23.80
2022-08-14T02:11:26.290Z,23.60
2022-08-14T02:14:15.122Z,23.70
2022-08-14T02:17:23.787Z,23.70
2022-08-14T02:20:12.378Z,23.70
2022-08-14T02:23:01.342Z,23.60
2022-08-14T02:25:54.653Z,23.70
2022-08-14T02:28:57.141Z,23.70
2022-08-14T02:31:53.177Z,23.70
2022-08-14T02:34:41.431Z,23.80
2022-08-14T02:37:48.175Z,23.80
2022-08-14T02:40:37.971Z,23.70
2022-08-14T02:43:36.510Z,23.70
2022-08-14T02:46:27.015Z,23.80
2022-08-14T02:49:27.411Z,23.80
2022-08-14T02:52:55.810Z,23.70
2022-08-14T02:55:31.236Z,23.70
2022-08-14T02:58:29.333Z,23.70
2022-08-14T03:01:24.109Z,23.60
2022-08-14T03:04:14.872Z,23.70
2022-08-14T03:07:07.449Z,23.70
2022-08-14T03:10:26.931Z,23.70
2022-08-14T03:13:04.976Z,23.90
2022-08-14T03:15:55.210Z,23.90
2022-08-14T03:18:47.576Z,23.90
2022-08-14T03:21:40.687Z,23.70
2022-08-14T03:24:28.401Z,23.80
2022-08-14T03:27:16.042Z,23.80
2022-08-14T03:30:05.747Z,23.90
2022-08-14T03:33:02.837Z,24.00
2022-08-14T03:36:07.674Z,24.20
2022-08-14T03:39:12.193Z,24.20
2022-08-14T03:42:06.851Z,24.20
2022-08-14T03:45:27.901Z,24.10
2022-08-14T03:48:30.301Z,24.10
2022-08-14T03:51:19.816Z,24.00
2022-08-14T03:54:08.721Z,24.00
2022-08-14T03:57:04.886Z,24.00
2022-08-14T03:59:52.468Z,24.00
2022-08-14T04:02:46.991Z,24.20
2022-08-14T04:05:42.935Z,24.20
2022-08-14T04:08:38.362Z,24.20
2022-08-14T04:11:30.336Z,24.30
2022-08-14T04:14:17.941Z,24.20
2022-08-14T04:17:09.938Z,24.30
2022-08-14T04:20:04.096Z,24.40
2022-08-14T04:22:55.574Z,24.30
2022-08-14T04:25:44.019Z,24.30
2022-08-14T04:29:08.342Z,24.40
2022-08-14T04:32:58.865Z,24.40
2022-08-14T04:34:52.161Z,24.60
2022-08-14T04:37:58.716Z,24.60
2022-08-14T04:41:05.002Z,24.60
2022-08-14T04:43:53.735Z,24.60
2022-08-14T04:47:01.293Z,24.60
2022-08-14T04:49:57.412Z,24.50
2022-08-14T04:52:45.437Z,24.70
2022-08-14T04:55:50.062Z,24.70
2022-08-14T04:58:42.572Z,24.70
2022-08-14T05:01:39.601Z,24.70
2022-08-14T05:04:28.107Z,24.70
2022-08-14T05:07:16.112Z,24.90
2022-08-14T05:10:13.024Z,24.90
2022-08-14T05:13:13.043Z,24.90
2022-08-14T05:16:04.155Z,25.00
2022-08-14T05:19:17.656Z,25.00
2022-08-14T05:22:17.373Z,25.10
2022-08-14T05:25:07.678Z,25.20
2022-08-14T05:28:01.132Z,25.30
2022-08-14T05:30:56.036Z,25.40
2022-08-14T05:33:45.148Z,25.40
2022-08-14T05:36:50.521Z,25.60
2022-08-14T05:39:46.620Z,25.60
2022-08-14T05:42:34.566Z,25.60
2022-08-14T05:45:22.537Z,25.50
2022-08-14T05:48:32.966Z,25.70
2022-08-14T05:51:26.811Z,25.70
2022-08-14T05:54:27.188Z,25.90
2022-08-14T05:57:15.176Z,26.20
2022-08-14T06:00:04.719Z,26.40
2022-08-14T06:02:53.317Z,26.60
2022-08-14T06:05:42.778Z,26.80
2022-08-14T06:08:36.535Z,26.80
2022-08-14T06:11:31.085Z,26.90
2022-08-14T06:14:21.464Z,27.00
2022-08-14T06:17:15.730Z,27.20
2022-08-14T06:20:15.182Z,27.30
2022-08-14T06:23:02.836Z,27.50
2022-08-14T06:25:52.704Z,27.60
2022-08-14T06:28:41.027Z,27.50
2022-08-14T06:31:33.745Z,27.70
2022-08-14T06:35:02.281Z,27.70
2022-08-14T06:37:29.041Z,28.00
2022-08-14T06:40:26.713Z,28.30
2022-08-14T06:43:20.656Z,27.90
2022-08-14T06:46:23.137Z,28.40
2022-08-14T06:49:17.706Z,28.40
2022-08-14T06:52:05.229Z,28.30
2022-08-14T06:54:53.647Z,28.30
2022-08-14T06:57:46.596Z,28.60
2022-08-14T07:00:34.169Z,28.70
2022-08-14T07:03:40.616Z,28.90
2022-08-14T07:06:46.540Z,28.90
2022-08-14T07:09:40.645Z,28.90
2022-08-14T07:12:54.477Z,28.80
2022-08-14T07:15:42.516Z,29.10
2022-08-14T07:18:32.979Z,29.40
2022-08-14T07:21:20.649Z,29.40
2022-08-14T07:24:09.523Z,29.20
2022-08-14T07:27:09.982Z,29.50
2022-08-14T07:30:03.856Z,30.10
2022-08-14T07:32:51.872Z,30.30
2022-08-14T07:35:57.310Z,30.60
2022-08-14T07:38:46.528Z,31.10
2022-08-14T07:41:42.541Z,31.60
2022-08-14T07:44:35.964Z,31.50
2022-08-14T07:47:33.621Z,31.50
2022-08-14T07:50:21.739Z,31.70
2022-08-14T07:53:10.497Z,31.90
2022-08-14T07:56:00.314Z,32.00
2022-08-14T07:58:58.280Z,32.00
2022-08-14T08:01:51.294Z,32.20
2022-08-14T08:04:45.292Z,32.60
2022-08-14T08:07:33.587Z,32.80
2022-08-14T08:10:57.381Z,32.50
2022-08-14T08:13:48.883Z,32.30
2022-08-14T08:16:42.472Z,32.00
2022-08-14T08:19:36.823Z,32.10
2022-08-14T08:22:27.266Z,32.10
2022-08-14T08:25:18.074Z,32.30
2022-08-14T08:28:30.348Z,31.80
2022-08-14T08:31:18.038Z,31.90
2022-08-14T08:34:06.700Z,31.80
2022-08-14T08:37:06.562Z,32.00
2022-08-14T08:40:02.976Z,31.80
2022-08-14T08:42:53.287Z,31.70
2022-08-14T08:45:42.310Z,32.30
2022-08-14T08:51:42.927Z,32.70
2022-08-14T08:54:30.953Z,32.90
2022-08-14T08:57:20.841Z,32.90
2022-08-14T09:00:25.536Z,33.20
2022-08-14T09:03:20.481Z,33.60
2022-08-14T09:07:00.685Z,33.50
2022-08-14T09:09:53.484Z,34.00
2022-08-14T09:12:46.828Z,33.60
2022-08-14T09:15:42.962Z,33.90
2022-08-14T09:18:30.552Z,34.10
2022-08-14T09:21:19.701Z,33.70
2022-08-14T09:24:27.900Z,33.60
2022-08-14T09:27:23.411Z,34.40
2022-08-14T09:30:13.160Z,34.40
2022-08-14T09:33:28.181Z,34.20
2022-08-14T09:36:24.581Z,33.70
2022-08-14T09:39:41.184Z,34.30
2022-08-14T09:43:15.068Z,34.50
2022-08-14T09:46:10.427Z,34.50
2022-08-14T09:49:07.573Z,34.70
2022-08-14T09:52:33.069Z,34.50
2022-08-14T09:55:28.192Z,34.90
2022-08-14T09:58:23.035Z,34.90
2022-08-14T10:01:18.426Z,35.20
2022-08-14T10:04:33.891Z,35.30
2022-08-14T10:07:35.187Z,35.80
2022-08-14T10:10:40.523Z,36.20
2022-08-14T10:13:43.215Z,36.10
2022-08-14T10:16:44.672Z,36.00
2022-08-14T10:19:35.716Z,35.90
2022-08-14T10:23:22.317Z,35.50
2022-08-14T10:25:50.884Z,35.00
2022-08-14T10:29:14.160Z,34.80
2022-08-14T10:31:59.582Z,34.90
2022-08-14T10:34:52.948Z,35.30
2022-08-14T10:37:51.272Z,36.10
2022-08-14T10:40:44.163Z,36.30
2022-08-14T10:43:42.671Z,36.80
2022-08-14T10:47:40.875Z,36.50
2022-08-14T10:50:14.825Z,36.80
2022-08-14T10:53:07.904Z,36.40
2022-08-14T10:56:04.202Z,36.20
2022-08-14T10:59:08.347Z,36.30
2022-08-14T11:01:57.151Z,36.20
2022-08-14T11:04:44.925Z,35.90
2022-08-14T11:07:40.051Z,35.50
2022-08-14T11:10:52.835Z,34.80
2022-08-14T11:13:46.662Z,34.40
2022-08-14T11:16:36.203Z,33.90
2022-08-14T11:19:26.334Z,33.60
2022-08-14T11:22:56.093Z,33.40
2022-08-14T11:25:43.839Z,33.20
2022-08-14T11:28:47.628Z,33.20
2022-08-14T11:31:39.347Z,33.30
2022-08-14T11:34:30.166Z,33.00
2022-08-14T11:37:33.900Z,33.10
2022-08-14T11:40:36.813Z,33.00
2022-08-14T11:43:29.355Z,32.90
2022-08-14T11:46:17.909Z,32.30
2022-08-14T11:49:34.167Z,31.30
2022-08-14T11:52:34.411Z,30.50
2022-08-14T11:55:38.660Z,30.60
2022-08-14T11:58:31.547Z,30.30
2022-08-14T12:01:28.809Z,29.90
2022-08-14T12:04:31.931Z,29.60
2022-08-14T12:07:20.881Z,30.20
2022-08-14T12:10:26.322Z,31.00
2022-08-14T12:13:22.547Z,31.30
2022-08-14T12:16:20.767Z,32.00
2022-08-14T12:19:10.237Z,32.10
2022-08-14T12:21:57.767Z,32.80
2022-08-14T12:24:50.536Z,33.00
2022-08-14T12:27:53.666Z,32.60
2022-08-14T12:30:45.702Z,32.60
2022-08-14T12:33:47.077Z,33.30
2022-08-14T12:36:42.237Z,33.40
2022-08-14T12:39:29.813Z,33.80
2022-08-14T12:42:36.404Z,33.90
2022-08-14T12:45:36.814Z,34.20
2022-08-14T12:48:32.356Z,34.00
2022-08-14T12:51:27.489Z,34.00
2022-08-14T12:54:27.700Z,34.00
2022-08-14T12:57:20.147Z,34.30
2022-08-14T13:00:22.860Z,34.30
2022-08-14T13:03:28.014Z,34.10
2022-08-14T13:06:16.539Z,34.00
2022-08-14T13:09:11.527Z,34.60
2022-08-14T13:12:33.494Z,34.50
2022-08-14T13:15:16.032Z,35.20
2022-08-14T13:18:05.030Z,34.90
2022-08-14T13:20:57.944Z,35.70
2022-08-14T13:23:49.919Z,35.80
2022-08-14T13:26:39.367Z,35.90
2022-08-14T13:29:46.860Z,36.00
2022-08-14T13:32:36.445Z,36.10
2022-08-14T13:35:24.313Z,35.90
2022-08-14T13:38:13.371Z,35.70
2022-08-14T13:41:03.191Z,36.20
2022-08-14T13:43:59.796Z,35.80
2022-08-14T13:46:49.677Z,36.00
2022-08-14T13:49:40.321Z,36.20
2022-08-14T13:52:54.746Z,36.60
2022-08-14T13:55:45.977Z,37.00
2022-08-14T13:58:41.587Z,37.30
2022-08-14T14:01:43.755Z,37.00
2022-08-14T14:04:34.219Z,37.20
2022-08-14T14:07:24.112Z,36.90
2022-08-14T14:10:28.167Z,36.60
2022-08-14T14:13:18.727Z,35.90
2022-08-14T14:16:11.473Z,36.00
2022-08-14T14:19:09.369Z,36.40
2022-08-14T14:21:59.787Z,36.20
2022-08-14T14:24:47.519Z,36.00
2022-08-14T14:27:41.149Z,35.60
2022-08-14T14:30:52.111Z,35.70
2022-08-14T14:33:48.948Z,35.10
2022-08-14T14:36:40.558Z,35.10
2022-08-14T14:39:29.333Z,34.60
2022-08-14T14:42:32.197Z,34.60
2022-08-14T14:45:23.810Z,34.50
2022-08-14T14:48:13.387Z,34.60
2022-08-14T14:51:03.657Z,34.80
2022-08-14T14:53:52.719Z,34.80
2022-08-14T14:56:50.194Z,34.50
2022-08-14T14:59:42.246Z,34.60
2022-08-14T15:02:44.313Z,33.90
2022-08-14T15:05:33.116Z,33.90
2022-08-14T15:08:26.907Z,34.50
2022-08-14T15:11:31.884Z,34.70
2022-08-14T15:14:57.068Z,34.50
2022-08-14T15:17:41.298Z,34.70
2022-08-14T15:20:31.037Z,34.70
2022-08-14T15:23:22.818Z,34.80
2022-08-14T15:26:13.367Z,34.70
2022-08-14T15:29:14.861Z,34.80
2022-08-14T15:32:02.731Z,34.80
2022-08-14T15:34:58.079Z,34.50
2022-08-14T15:37:45.605Z,34.90
2022-08-14T15:40:41.512Z,34.70
2022-08-14T15:43:33.676Z,34.60
2022-08-14T15:46:25.435Z,34.90
2022-08-14T15:49:34.656Z,34.70
2022-08-14T15:52:32.461Z,34.80
2022-08-14T15:55:23.209Z,35.10
2022-08-14T15:58:14.395Z,35.40
2022-08-14T16:01:50.856Z,35.50
2022-08-14T16:04:28.961Z,35.20
2022-08-14T16:07:18.015Z,35.40
2022-08-14T16:10:29.207Z,35.40
2022-08-14T16:13:39.539Z,35.10
2022-08-14T16:16:34.690Z,35.40
2022-08-14T16:19:43.999Z,35.30
2022-08-14T16:22:59.321Z,34.90
2022-08-14T16:25:45.756Z,35.40
2022-08-14T16:28:35.528Z,35.10
2022-08-14T16:31:24.786Z,35.30
2022-08-14T16:37:34.092Z,35.40
2022-08-14T16:40:25.407Z,35.20
2022-08-14T16:43:15.500Z,35.10
2022-08-14T16:46:06.885Z,34.80
2022-08-14T16:48:58.487Z,35.00
2022-08-14T16:51:51.354Z,34.90
2022-08-14T16:54:48.206Z,35.00
2022-08-14T16:57:52.006Z,34.90
2022-08-14T17:00:43.765Z,34.80
2022-08-14T17:03:40.785Z,34.60
2022-08-14T17:06:57.876Z,34.40
2022-08-14T17:09:54.652Z,34.40
2022-08-14T17:12:42.356Z,34.10
2022-08-14T17:15:29.955Z,34.00
2022-08-14T17:18:41.389Z,34.10
2022-08-14T17:21:37.484Z,33.90
2022-08-14T17:24:57.594Z,33.90
2022-08-14T17:27:32.960Z,33.80
2022-08-14T17:30:32.343Z,33.40
2022-08-14T17:33:40.450Z,33.40
2022-08-14T17:36:46.477Z,33.30
2022-08-14T17:39:39.772Z,33.30
2022-08-14T17:43:03.471Z,33.20
2022-08-14T17:45:51.496Z,33.00
2022-08-14T17:49:14.330Z,33.00
2022-08-14T17:52:07.807Z,33.00
2022-08-14T17:56:01.894Z,32.80
2022-08-14T17:58:27.170Z,32.60
2022-08-14T18:01:23.687Z,32.50
2022-08-14T18:04:25.375Z,32.60
2022-08-14T18:07:50.647Z,32.60
2022-08-14T18:10:55.398Z,32.30
2022-08-14T18:13:50.962Z,32.20
2022-08-14T18:16:43.258Z,31.80
2022-08-14T18:19:38.250Z,31.80
2022-08-14T18:22:32.261Z,31.70
2022-08-14T18:25:25.714Z,31.60
2022-08-14T18:28:47.945Z,31.50
2022-08-14T18:31:42.264Z,31.30
2022-08-14T18:34:45.258Z,31.20
2022-08-14T18:37:40.711Z,30.90
2022-08-14T18:40:35.031Z,30.90
2022-08-14T18:43:59.046Z,30.70
2022-08-14T18:47:09.997Z,30.20
2022-08-14T18:50:27.005Z,29.90
2022-08-14T18:53:20.145Z,29.60
2022-08-14T18:56:12.734Z,29.20
2022-08-14T18:59:35.396Z,28.80
2022-08-14T19:02:30.601Z,28.70
2022-08-14T19:05:41.316Z,28.50
2022-08-14T19:08:48.851Z,28.30
2022-08-14T19:11:37.701Z,28.20
2022-08-14T19:14:47.506Z,28.20
2022-08-14T19:18:14.138Z,28.00
2022-08-14T19:20:55.696Z,27.90
2022-08-14T19:24:29.891Z,27.70
2022-08-14T19:27:25.165Z,27.70
2022-08-14T19:30:21.186Z,27.60
2022-08-14T19:33:46.601Z,27.40
2022-08-14T19:37:05.768Z,27.30
2022-08-14T19:39:57.397Z,27.30
2022-08-14T19:42:46.799Z,27.20
2022-08-14T19:45:35.606Z,27.20
2022-08-14T19:48:24.940Z,27.10
2022-08-14T19:51:12.784Z,27.10
2022-08-14T19:54:13.163Z,27.10
2022-08-14T19:57:01.540Z,27.00
2022-08-14T19:59:57.896Z,27.00
2022-08-14T20:02:49.316Z,26.80
2022-08-14T20:05:43.033Z,26.70
2022-08-14T20:10:58.598Z,26.60
2022-08-14T20:12:01.649Z,26.60
2022-08-14T20:14:51.777Z,26.60
2022-08-14T20:17:40.993Z,26.40
2022-08-14T20:20:31.924Z,26.40
2022-08-14T20:23:20.402Z,26.30
2022-08-14T20:26:31.568Z,26.30
2022-08-14T20:29:29.392Z,26.30
2022-08-14T20:32:17.687Z,26.20
2022-08-14T20:35:08.667Z,26.10
2022-08-14T20:38:00.001Z,26.10
2022-08-14T20:41:12.550Z,26.10
2022-08-14T20:44:20.823Z,26.10
2022-08-14T20:47:15.388Z,26.10
2022-08-14T20:50:22.315Z,26.00
2022-08-14T20:53:56.098Z,25.90
2022-08-14T20:56:46.478Z,25.80
2022-08-14T20:59:53.225Z,25.80
2022-08-14T21:02:50.071Z,25.70
2022-08-14T21:05:38.518Z,25.70
2022-08-14T21:08:37.224Z,25.60
2022-08-14T21:11:28.328Z,25.60
2022-08-14T21:14:28.420Z,25.60
2022-08-14T21:17:16.863Z,25.60
2022-08-14T21:20:26.083Z,25.70
2022-08-14T21:23:17.004Z,25.70
2022-08-14T21:26:07.509Z,25.70
2022-08-14T21:28:58.194Z,25.60
2022-08-14T21:31:55.732Z,25.60
2022-08-14T21:34:55.359Z,25.60
2022-08-14T21:37:47.930Z,25.50
2022-08-14T21:40:41.715Z,25.50
2022-08-14T21:43:31.693Z,25.50
2022-08-14T21:46:20.388Z,25.60
2022-08-14T21:49:13.418Z,25.40
2022-08-14T21:52:51.417Z,25.30
2022-08-14T21:55:23.705Z,25.30
2022-08-14T21:58:51.987Z,25.10
2022-08-14T22:01:23.894Z,25.20
2022-08-14T22:04:33.587Z,25.20
2022-08-14T22:07:19.288Z,25.20
2022-08-14T22:10:22.925Z,25.10
2022-08-14T22:13:13.313Z,25.20
2022-08-14T22:16:04.763Z,25.30
2022-08-14T22:18:54.694Z,25.20
2022-08-14T22:21:47.369Z,25.10
2022-08-14T22:24:53.261Z,25.20
2022-08-14T22:27:55.977Z,25.30
2022-08-14T22:30:47.288Z,25.20
2022-08-14T22:33:44.484Z,25.10
2022-08-14T22:36:47.598Z,25.10
2022-08-14T22:40:17.808Z,25.20
2022-08-14T22:43:00.219Z,24.90
2022-08-14T22:45:55.782Z,24.90
2022-08-14T22:48:45.470Z,24.90
2022-08-14T22:51:40.646Z,24.90
2022-08-14T22:54:53.065Z,24.90
2022-08-14T22:57:43.461Z,24.90
2022-08-14T23:00:31.518Z,24.90
2022-08-14T23:03:19.814Z,24.90
2022-08-14T23:07:03.305Z,24.70
2022-08-14T23:09:35.802Z,24.80
2022-08-14T23:12:34.891Z,24.90
2022-08-14T23:15:30.245Z,24.70
2022-08-14T23:18:18.138Z,24.60
2022-08-14T23:21:14.573Z,24.40
2022-08-14T23:24:05.153Z,24.40
2022-08-14T23:26:55.378Z,24.40
2022-08-14T23:29:43.133Z,24.30
2022-08-14T23:32:31.569Z,24.40
2022-08-14T23:35:27.456Z,24.40
2022-08-14T23:38:29.893Z,24.30
2022-08-14T23:41:19.512Z,24.20
2022-08-14T23:44:08.142Z,24.20
2022-08-14T23:47:00.681Z,24.20
2022-08-14T23:50:00.091Z,24.40
2022-08-14T23:53:06.892Z,24.20
2022-08-14T23:55:58.647Z,24.20
2022-08-14T23:58:53.496Z,24.20
